Terminal Aerodrome Forecast
Issued by NWS Cleveland, OH

Home | Current Version | Previous Version | Text Only | Print | Product List | Glossary Off
Versions: 1 2 3 4 5 6 7 8 9 10 11 12 13 14

000
FTUS41 KCLE 201720
TAFTOL
TAF
KTOL 201720Z 2018/2118 24012G18KT P6SM VCTS SCT035CB BKN200
     FM202000 27008KT P6SM SCT035 BKN200
     FM210800 35003KT 3SM BR BKN020
     FM211500 01008KT P6SM BKN035=

USA.gov is the U.S. government's official web portal to all federal, state and local government web resources and services.